Time;durP1;ratioP1;P1;durP2;ratioP2;P2;SDS_P1;SDS_P2;PMS_P1;PMS_P2;Temp;Humidity;BMP_temperature;BMP_pressure;BME280_temperature;BME280_humidity;BME280_pressure;Samples;Min_cycle;Max_cycle;Signal;HPM_P1;HPM_P2
2022/08/31 00:04:09;;;;;;;4.70;3.15;;;16.30;99.90;;;-141.84;72.52;19895.13;5050958;28;20227;-60
2022/08/31 00:06:37;;;;;;;3.55;3.20;;;16.30;99.90;;;-141.84;72.25;19891.06;5051291;28;20186;-60
2022/08/31 00:09:07;;;;;;;3.10;2.70;;;16.40;99.90;;;-141.84;72.44;19868.72;5051946;28;20300;-60
2022/08/31 00:11:37;;;;;;;3.28;2.97;;;16.40;99.90;;;-141.84;72.86;19836.19;5050924;28;20309;-62
2022/08/31 00:14:09;;;;;;;3.70;3.40;;;16.40;99.90;;;-141.84;73.01;19834.16;5050848;28;20279;-61
2022/08/31 00:16:45;;;;;;;3.50;3.20;;;16.30;99.90;;;-141.84;72.94;19850.41;5050955;28;20715;-61
2022/08/31 00:19:14;;;;;;;3.65;3.33;;;16.30;99.90;;;-141.84;72.57;19850.41;5051093;28;20233;-60
2022/08/31 00:21:43;;;;;;;4.22;3.13;;;16.30;99.90;;;-141.84;72.56;19858.56;5051178;28;20228;-59
2022/08/31 00:24:13;;;;;;;3.85;3.20;;;16.30;99.90;;;-141.84;72.18;19858.56;5051370;28;20205;-61
2022/08/31 00:26:42;;;;;;;4.22;3.00;;;16.40;99.90;;;-141.84;71.94;19878.88;5050649;28;20800;-59
2022/08/31 00:29:12;;;;;;;3.42;3.13;;;16.40;99.90;;;-141.84;72.73;19848.38;5050747;28;20217;-62
2022/08/31 00:31:40;;;;;;;3.53;3.22;;;16.40;99.90;;;-141.84;72.29;19854.50;5050987;28;20309;-59
2022/08/31 00:34:09;;;;;;;4.55;3.63;;;16.30;99.90;;;-141.84;72.66;19874.81;5051135;28;20235;-60
2022/08/31 00:36:37;;;;;;;3.38;3.08;;;16.30;99.90;;;-141.84;72.71;19844.31;5050570;28;20301;-60
2022/08/31 00:39:06;;;;;;;3.70;3.40;;;16.20;99.90;;;-141.84;72.04;19862.63;5051316;28;20677;-62
2022/08/31 00:41:38;;;;;;;3.53;3.22;;;16.30;99.90;;;-141.84;71.94;19848.38;5050523;28;20312;-60
2022/08/31 00:44:10;;;;;;;3.50;3.20;;;16.30;99.90;;;-141.84;71.90;19813.84;5050746;28;20252;-62
2022/08/31 00:46:42;;;;;;;3.95;3.22;;;16.30;99.90;;;-141.84;72.55;19813.84;5050738;28;20320;-60
2022/08/31 00:49:15;;;;;;;3.70;3.30;;;16.20;99.90;;;-141.84;72.20;19821.97;5050573;28;20313;-59
2022/08/31 00:51:49;;;;;;;4.28;3.20;;;16.20;99.90;;;-141.84;72.10;19817.91;5050556;28;20664;-60
2022/08/31 00:54:23;;;;;;;3.53;3.22;;;16.30;99.90;;;-141.84;72.39;19811.81;5051056;28;20182;-59
2022/08/31 00:56:51;;;;;;;4.72;3.50;;;16.20;99.90;;;-141.84;71.71;19862.63;5050415;28;20603;-59
2022/08/31 00:59:22;;;;;;;3.50;3.20;;;16.30;99.90;;;-141.84;71.99;19821.97;5050339;28;20221;-60
2022/08/31 01:01:50;;;;;;;3.10;2.80;;;16.30;99.90;;;-141.84;71.16;19868.72;5050663;28;20304;-60
2022/08/31 01:04:19;;;;;;;3.85;3.50;;;16.40;99.90;;;-141.84;71.94;19828.06;5050521;28;20241;-61
2022/08/31 01:06:48;;;;;;;3.28;3.03;;;16.30;99.90;;;-141.84;71.31;19858.56;5050670;28;20204;-60
2022/08/31 01:09:19;;;;;;;3.20;3.00;;;16.30;99.90;;;-141.84;71.67;19870.75;5053349;28;20198;-62
2022/08/31 01:11:47;;;;;;;3.53;3.22;;;16.30;99.90;;;-141.84;71.03;19887.00;5053943;28;20308;-60
2022/08/31 01:14:15;;;;;;;3.17;2.97;;;16.40;99.90;;;-141.84;71.55;19809.78;5054025;28;20229;-60
2022/08/31 01:16:51;;;;;;;3.22;3.00;;;16.30;99.90;;;-141.84;72.21;19819.94;5054069;28;20225;-60
2022/08/31 01:19:33;;;;;;;3.40;3.10;;;16.30;99.90;;;-141.84;71.85;19809.78;5053951;28;20247;-59
2022/08/31 01:22:14;;;;;;;3.20;2.90;;;16.30;99.90;;;-141.84;71.77;19801.66;5053992;28;20227;-60
2022/08/31 01:24:47;;;;;;;3.90;3.10;;;16.30;99.90;;;-141.84;71.64;19828.06;5054143;28;20196;-59
2022/08/31 01:27:24;;;;;;;4.97;3.15;;;16.30;99.90;;;-141.84;72.42;19781.31;5054155;28;20252;-60
2022/08/31 01:29:53;;;;;;;4.20;3.22;;;16.30;99.90;;;-141.84;72.29;19797.59;5053715;28;20229;-62
2022/08/31 01:32:21;;;;;;;3.30;3.00;;;16.30;99.90;;;-141.84;71.49;19838.22;5053726;28;20847;-63
2022/08/31 01:34:49;;;;;;;3.75;3.10;;;16.30;99.90;;;-141.84;71.67;19754.91;5053829;28;20233;-60
2022/08/31 01:37:17;;;;;;;3.20;2.90;;;16.30;99.90;;;-141.84;72.29;19777.25;5053589;28;20308;-62
2022/08/31 01:39:53;;;;;;;3.65;3.20;;;16.20;99.90;;;-141.84;71.35;19854.50;5053794;28;20228;-61
2022/08/31 01:42:21;;;;;;;4.43;3.40;;;16.30;99.90;;;-141.84;71.76;19813.84;5054072;28;20293;-61
2022/08/31 01:45:00;;;;;;;3.53;3.22;;;16.30;99.90;;;-141.84;72.22;19805.72;5053785;28;20288;-61
2022/08/31 01:47:28;;;;;;;3.33;3.00;;;16.20;99.90;;;-141.84;71.95;19754.91;5053334;28;20716;-61
2022/08/31 01:49:56;;;;;;;4.00;3.20;;;16.20;99.90;;;-141.84;72.39;19758.97;5053452;28;20222;-60
2022/08/31 01:52:26;;;;;;;4.30;3.00;;;16.10;99.90;;;-141.84;72.44;19769.13;5053296;28;20240;-60
2022/08/31 01:54:56;;;;;;;3.28;3.00;;;16.10;99.90;;;-141.84;72.62;19769.13;5053680;28;20304;-61
2022/08/31 01:57:24;;;;;;;3.10;2.90;;;16.10;99.90;;;-141.84;72.41;19767.09;5054102;28;20292;-61
2022/08/31 02:00:04;;;;;;;3.65;3.35;;;16.10;99.90;;;-141.84;72.15;19738.66;5053377;28;20221;-61
2022/08/31 02:02:33;;;;;;;4.72;3.33;;;16.10;99.90;;;-141.84;72.72;19738.66;5053144;28;20313;-60
2022/08/31 02:05:01;;;;;;;3.38;3.15;;;16.10;99.90;;;-141.84;72.41;19793.50;5053495;28;20225;-59
2022/08/31 02:07:29;;;;;;;3.97;3.33;;;16.10;99.90;;;-141.84;72.50;19740.69;5052889;28;20734;-61
2022/08/31 02:09:59;;;;;;;3.28;2.97;;;16.10;99.90;;;-141.84;73.36;19716.28;5053026;28;20229;-60
2022/08/31 02:12:27;;;;;;;3.47;3.17;;;16.00;99.90;;;-141.84;73.29;19712.22;5053155;28;20766;-60
2022/08/31 02:14:55;;;;;;;3.22;2.92;;;15.90;99.90;;;-141.84;73.29;19712.22;5053322;28;20311;-61
2022/08/31 02:17:23;;;;;;;3.92;3.42;;;15.90;99.90;;;-141.84;73.97;19698.00;5052751;28;20314;-61
2022/08/31 02:19:51;;;;;;;3.88;3.55;;;15.90;99.90;;;-141.84;74.60;19639.06;5052076;28;20225;-62
2022/08/31 02:22:19;;;;;;;4.65;3.58;;;15.90;99.90;;;-141.84;74.50;19677.66;5052761;28;20249;-61
2022/08/31 02:24:48;;;;;;;3.65;3.35;;;15.80;99.90;;;-141.84;74.15;19669.53;5052876;28;20285;-60
2022/08/31 02:27:17;;;;;;;3.30;3.10;;;15.80;99.90;;;-141.84;73.99;19691.91;5052956;28;20205;-62
2022/08/31 02:29:45;;;;;;;4.03;3.38;;;15.80;99.90;;;-141.84;73.87;19667.50;5052629;28;20316;-61
2022/08/31 02:32:17;;;;;;;3.78;3.42;;;15.80;99.90;;;-141.84;74.32;19643.13;5052757;28;20700;-59
2022/08/31 02:34:48;;;;;;;3.40;3.10;;;15.80;99.90;;;-141.84;74.89;19659.38;5052627;28;20252;-61
2022/08/31 02:37:16;;;;;;;3.67;3.15;;;15.70;99.90;;;-141.84;75.24;19614.66;5052536;28;20232;-60
2022/08/31 02:39:47;;;;;;;3.60;3.30;;;15.70;99.90;;;-141.84;73.88;19687.84;5052670;28;20315;-61
2022/08/31 02:42:18;;;;;;;4.03;3.00;;;15.70;99.90;;;-141.84;73.89;19645.16;5052802;28;20732;-60
2022/08/31 02:44:46;;;;;;;3.20;2.97;;;15.60;99.90;;;-141.84;74.10;19643.13;5052298;28;20224;-60
2022/08/31 02:47:14;;;;;;;3.85;3.50;;;15.70;99.90;;;-141.84;74.47;19639.06;5052529;28;20748;-60
2022/08/31 02:49:42;;;;;;;4.07;3.13;;;15.60;99.90;;;-141.84;74.63;19614.66;5052202;28;20256;-61
2022/08/31 02:52:10;;;;;;;4.15;3.35;;;15.60;99.90;;;-141.84;75.26;19596.38;5052446;28;20308;-60
2022/08/31 02:54:39;;;;;;;3.80;3.45;;;15.60;99.90;;;-141.84;75.29;19602.47;5052455;28;20209;-61
2022/08/31 02:57:07;;;;;;;3.53;3.22;;;15.50;99.90;;;-141.84;75.26;19620.78;5052824;28;20292;-60
2022/08/31 02:59:36;;;;;;;3.70;3.40;;;15.50;99.90;;;-141.84;75.19;19592.31;5051945;28;20232;-60
2022/08/31 03:02:05;;;;;;;3.70;3.40;;;15.50;99.90;;;-141.84;74.82;19614.66;5052095;28;20308;-61
2022/08/31 03:04:33;;;;;;;4.80;3.42;;;15.40;99.90;;;-141.84;74.87;19610.59;5052106;28;20236;-61
2022/08/31 03:07:02;;;;;;;4.10;2.90;;;15.40;99.90;;;-141.84;74.03;19606.53;5052122;28;20225;-60
2022/08/31 03:09:31;;;;;;;3.40;3.10;;;15.50;99.90;;;-141.84;75.00;19582.16;5052173;28;20205;-62
2022/08/31 03:11:59;;;;;;;3.80;3.50;;;15.50;99.90;;;-141.84;74.62;19578.09;5052434;28;20201;-61
2022/08/31 03:14:27;;;;;;;5.18;3.20;;;15.40;99.90;;;-141.84;74.78;19555.75;5051613;28;20235;-61
2022/08/31 03:16:57;;;;;;;5.85;3.45;;;15.40;99.90;;;-141.84;73.98;19661.41;5052108;28;20337;-61
2022/08/31 03:19:28;;;;;;;8.48;3.17;;;15.40;99.90;;;-141.84;74.47;19582.16;5051684;28;20229;-60
2022/08/31 03:21:56;;;;;;;4.47;3.10;;;15.40;99.90;;;-141.84;73.90;19635.00;5051591;28;20227;-60
2022/08/31 03:24:24;;;;;;;3.97;2.80;;;15.40;99.90;;;-141.84;74.01;19590.28;5051879;28;20243;-60
2022/08/31 03:26:55;;;;;;;3.45;3.15;;;15.40;99.90;;;-141.84;74.57;19537.44;5051411;28;20778;-59
2022/08/31 03:29:23;;;;;;;3.80;3.30;;;15.40;99.90;;;-141.84;74.95;19582.16;5051291;28;20229;-61
2022/08/31 03:31:51;;;;;;;3.50;3.20;;;15.40;99.90;;;-141.84;74.93;19565.91;5051532;28;20496;-61
2022/08/31 03:34:20;;;;;;;3.55;3.25;;;15.30;99.90;;;-141.84;74.77;19563.88;5051312;28;20609;-61
2022/08/31 03:36:48;;;;;;;3.10;2.90;;;15.30;99.90;;;-141.84;74.96;19521.19;5051442;28;20551;-60
2022/08/31 03:39:17;;;;;;;5.72;3.20;;;15.30;99.90;;;-141.84;74.61;19578.09;5051936;28;20205;-60
2022/08/31 03:41:45;;;;;;;3.80;3.40;;;15.30;99.90;;;-141.84;74.87;19547.59;5051212;28;20235;-59
2022/08/31 03:44:13;;;;;;;3.33;3.03;;;15.30;99.90;;;-141.84;74.72;19574.03;5050892;28;20647;-60
2022/08/31 03:46:43;;;;;;;3.08;2.80;;;15.20;99.90;;;-141.84;75.07;19594.34;5051477;28;20229;-61
2022/08/31 03:49:12;;;;;;;3.50;3.20;;;15.20;99.90;;;-141.84;75.43;19547.59;5051458;28;20225;-61
2022/08/31 03:51:42;;;;;;;3.63;3.28;;;15.20;99.90;;;-141.84;75.53;19553.72;5051179;28;20197;-61
2022/08/31 03:54:10;;;;;;;4.88;3.90;;;15.20;99.90;;;-141.84;75.16;19539.47;5051474;28;20691;-60
2022/08/31 03:56:39;;;;;;;3.17;2.95;;;15.20;99.90;;;-141.84;75.70;19598.41;5051261;28;20225;-60
2022/08/31 03:59:07;;;;;;;3.78;3.47;;;15.10;99.90;;;-141.84;75.44;19517.13;5051043;28;20221;-60
2022/08/31 04:01:37;;;;;;;3.22;2.92;;;15.20;99.90;;;-141.84;75.23;19588.25;5051199;28;20735;-59
2022/08/31 04:04:06;;;;;;;5.63;3.40;;;15.20;99.90;;;-141.84;75.26;19500.88;5051208;28;20236;-60
2022/08/31 04:06:35;;;;;;;4.30;3.50;;;15.20;99.90;;;-141.84;75.42;19547.59;5051486;28;20223;-60
2022/08/31 04:09:04;;;;;;;3.85;3.45;;;15.20;99.90;;;-141.84;76.06;19492.75;5051398;28;20202;-61
2022/08/31 04:11:32;;;;;;;3.88;3.55;;;15.20;99.90;;;-141.84;76.26;19506.97;5051497;28;20232;-60
2022/08/31 04:14:13;;;;;;;3.92;3.45;;;15.20;99.90;;;-141.84;75.98;19539.47;5050618;28;20232;-60
2022/08/31 04:16:43;;;;;;;4.50;3.40;;;15.10;99.90;;;-141.84;76.30;19500.88;5051186;28;20312;-60
2022/08/31 04:19:14;;;;;;;3.53;3.10;;;15.10;99.90;;;-141.84;76.33;19504.94;5050703;28;20597;-60
2022/08/31 04:21:44;;;;;;;3.90;3.60;;;15.10;99.90;;;-141.84;76.70;19488.69;5050980;28;20293;-60
2022/08/31 04:24:13;;;;;;;3.90;3.13;;;15.10;99.90;;;-141.84;76.65;19462.25;5051074;28;20300;-59
2022/08/31 04:26:42;;;;;;;3.78;3.35;;;15.10;99.90;;;-141.84;75.03;19537.44;5050630;28;20231;-59
2022/08/31 04:29:10;;;;;;;4.47;3.55;;;15.10;99.90;;;-141.84;75.08;19500.88;5050684;28;20249;-60
2022/08/31 04:31:40;;;;;;;3.72;3.33;;;15.20;99.90;;;-141.84;74.98;19537.44;5050947;28;20564;-59
2022/08/31 04:34:08;;;;;;;3.90;3.28;;;15.20;99.90;;;-141.84;75.22;19500.88;5050755;28;20664;-60
2022/08/31 04:36:38;;;;;;;3.67;3.38;;;15.20;99.90;;;-141.84;75.60;19498.84;5050986;28;20207;-59
2022/08/31 04:39:07;;;;;;;3.60;3.30;;;15.20;99.90;;;-141.84;75.33;19515.09;5051438;28;20300;-59
2022/08/31 04:41:39;;;;;;;3.42;3.13;;;15.20;99.90;;;-141.84;75.08;19517.13;5050463;28;20229;-59
2022/08/31 04:44:10;;;;;;;3.88;3.47;;;15.20;99.90;;;-141.84;75.10;19525.25;5052462;28;20249;-60
2022/08/31 04:46:41;;;;;;;3.72;3.13;;;15.20;99.90;;;-141.84;74.54;19574.03;5054637;28;20225;-60
2022/08/31 04:49:13;;;;;;;3.45;3.08;;;15.30;99.90;;;-141.84;74.40;19563.88;5054527;28;20263;-60
2022/08/31 04:51:42;;;;;;;3.35;3.05;;;15.20;99.90;;;-141.84;74.11;19553.72;5054759;28;20273;-59
2022/08/31 04:54:13;;;;;;;3.75;3.00;;;15.30;99.90;;;-141.84;73.86;19537.44;5055203;28;20256;-60
2022/08/31 04:56:45;;;;;;;3.47;3.13;;;15.30;99.90;;;-141.84;74.06;19553.72;5054192;28;20303;-60
2022/08/31 04:59:16;;;;;;;3.50;3.03;;;15.30;99.90;;;-141.84;73.27;19563.88;5054388;28;20251;-59
2022/08/31 05:01:45;;;;;;;3.25;2.95;;;15.30;99.90;;;-141.84;71.65;19643.13;5054270;28;20360;-60
2022/08/31 05:04:15;;;;;;;4.25;3.08;;;15.50;99.90;;;-141.84;72.31;19598.41;5054512;28;20233;-59
2022/08/31 05:06:46;;;;;;;3.35;3.05;;;15.50;99.90;;;-141.84;73.08;19541.50;5054271;28;20202;-61
2022/08/31 05:09:18;;;;;;;3.90;2.75;;;15.50;99.90;;;-141.84;72.18;19594.34;5054802;28;20320;-60
2022/08/31 05:11:50;;;;;;;3.10;2.80;;;15.50;99.90;;;-141.84;72.13;19608.56;5053667;28;20318;-60
2022/08/31 05:14:18;;;;;;;4.40;3.55;;;15.50;99.90;;;-141.84;71.50;19628.91;5053898;28;20249;-61
2022/08/31 05:16:46;;;;;;;3.75;2.75;;;15.50;99.90;;;-141.84;71.80;19624.84;5053876;28;20304;-61
2022/08/31 05:19:14;;;;;;;4.18;3.28;;;15.60;99.90;;;-141.84;71.08;19681.75;5053917;28;20754;-61
2022/08/31 05:21:44;;;;;;;4.88;3.17;;;15.70;99.90;;;-141.84;70.51;19663.44;5053924;28;20316;-60
2022/08/31 05:24:15;;;;;;;3.42;3.10;;;15.70;99.90;;;-141.84;71.11;19667.50;5054607;28;20215;-60
2022/08/31 05:26:47;;;;;;;4.43;3.30;;;15.70;99.90;;;-141.84;70.88;19655.31;5053512;28;20236;-61
2022/08/31 05:29:20;;;;;;;3.58;3.20;;;15.70;99.90;;;-141.84;70.10;19702.06;5053539;28;20228;-60
2022/08/31 05:31:49;;;;;;;3.67;3.38;;;15.80;99.90;;;-141.84;69.99;19738.66;5053766;28;20221;-60
2022/08/31 05:34:21;;;;;;;5.45;3.35;;;15.90;99.90;;;-141.84;69.58;19693.94;5053907;28;20235;-60
2022/08/31 05:36:54;;;;;;;4.53;3.05;;;15.90;99.90;;;-141.84;69.41;19712.22;5053664;28;20201;-60
2022/08/31 05:39:23;;;;;;;4.10;3.25;;;15.90;99.90;;;-141.84;68.94;19728.47;5054081;28;20181;-60
2022/08/31 05:41:51;;;;;;;4.82;3.28;;;15.90;99.90;;;-141.84;69.24;19667.50;5052959;28;20225;-61
2022/08/31 05:44:21;;;;;;;4.03;2.80;;;15.80;99.90;;;-141.84;70.23;19661.41;5053345;28;20229;-61
2022/08/31 05:46:55;;;;;;;3.85;3.00;;;15.70;99.90;;;-141.84;70.37;19700.03;5053334;28;20225;-59
2022/08/31 05:49:31;;;;;;;3.38;3.10;;;15.70;99.90;;;-141.84;70.40;19698.00;5053645;28;20255;-60
2022/08/31 05:52:00;;;;;;;5.53;3.30;;;15.80;99.90;;;-141.84;70.63;19712.22;5053338;28;20225;-61
2022/08/31 05:54:28;;;;;;;3.53;3.22;;;15.70;99.90;;;-141.84;70.21;19738.66;5054005;28;20224;-60
2022/08/31 05:56:57;;;;;;;4.43;3.53;;;15.70;99.90;;;-141.84;70.04;19667.50;5053292;28;20292;-60
2022/08/31 05:59:31;;;;;;;5.10;3.40;;;15.60;99.90;;;-141.84;69.67;19712.22;5052967;28;20253;-60
2022/08/31 06:02:00;;;;;;;4.38;3.58;;;15.70;99.90;;;-141.84;68.69;19791.47;5053066;28;20313;-59
2022/08/31 06:04:29;;;;;;;5.00;3.72;;;15.80;99.90;;;-141.84;67.66;19799.63;5053017;28;20229;-59
2022/08/31 06:06:57;;;;;;;5.32;3.65;;;15.90;99.90;;;-141.84;67.38;19842.28;5053171;28;20225;-60
2022/08/31 06:09:25;;;;;;;4.32;2.92;;;16.00;99.90;;;-141.84;66.98;19815.88;5053784;28;20573;-60
2022/08/31 06:11:54;;;;;;;5.18;3.40;;;16.10;99.90;;;-141.84;67.72;19801.66;5052609;28;20768;-60
2022/08/31 06:14:22;;;;;;;6.45;3.28;;;16.00;99.90;;;-141.84;67.70;19765.06;5052710;28;20229;-59
2022/08/31 06:16:55;;;;;;;3.28;2.95;;;15.90;99.90;;;-141.84;67.70;19828.06;5052767;28;20229;-59
2022/08/31 06:19:23;;;;;;;3.75;3.00;;;16.00;99.90;;;-141.84;68.03;19828.06;5052943;28;20312;-61
2022/08/31 06:21:51;;;;;;;3.55;3.25;;;16.10;99.90;;;-141.84;67.48;19860.59;5052542;28;20712;-60
2022/08/31 06:24:20;;;;;;;3.40;3.10;;;16.10;99.90;;;-141.84;66.97;19850.41;5053035;28;20217;-59
2022/08/31 06:26:54;;;;;;;4.47;2.80;;;16.20;99.90;;;-141.84;67.12;19901.22;5051096;28;20255;-58
2022/08/31 06:29:30;;;;;;;3.40;3.10;;;16.10;99.90;;;-141.84;67.35;19891.06;5052400;28;20233;-59
2022/08/31 06:32:06;;;;;;;3.47;2.97;;;16.20;99.90;;;-141.84;66.53;19895.13;5052436;28;20244;-59
2022/08/31 06:34:35;;;;;;;3.30;3.00;;;16.20;99.90;;;-141.84;66.61;19891.06;5052428;28;20294;-60
2022/08/31 06:37:04;;;;;;;3.97;3.10;;;16.20;99.90;;;-141.84;66.58;19952.03;5052316;28;20221;-60
2022/08/31 06:39:32;;;;;;;4.60;3.00;;;16.30;99.90;;;-141.84;65.85;19943.91;5052125;28;20208;-62
2022/08/31 06:42:00;;;;;;;4.25;3.20;;;16.30;99.90;;;-141.84;66.09;19903.25;5052627;28;20232;-60
2022/08/31 06:44:29;;;;;;;3.13;2.83;;;16.30;99.90;;;-141.84;65.70;19996.75;5036626;28;20308;-60
2022/08/31 06:46:58;;;;;;;7.60;3.15;;;16.40;99.90;;;-141.84;65.52;19964.25;5032283;28;20310;-60
2022/08/31 06:49:26;;;;;;;3.38;2.92;;;16.40;99.90;;;-141.84;64.55;20045.53;5032297;28;20236;-59
2022/08/31 06:51:56;;;;;;;3.88;3.03;;;16.60;99.90;;;-141.84;64.47;20063.81;5032222;28;20261;-59
2022/08/31 06:54:24;;;;;;;6.18;3.20;;;16.60;99.90;;;-141.84;64.52;20069.94;5032767;28;20213;-60
2022/08/31 06:56:58;;;;;;;3.20;2.90;;;16.70;99.90;;;-141.84;64.10;20086.19;5032234;28;20210;-60
2022/08/31 06:59:27;;;;;;;3.90;2.90;;;16.70;99.90;;;-141.84;64.20;20090.25;5031947;28;20316;-61
2022/08/31 07:01:59;;;;;;;3.35;2.70;;;16.80;99.90;;;-141.84;64.52;20074.00;5031978;28;20249;-60
2022/08/31 07:04:33;;;;;;;3.70;2.95;;;16.80;99.90;;;-141.84;63.99;20118.69;5032046;28;20309;-60
2022/08/31 07:07:02;;;;;;;4.47;3.13;;;16.90;99.90;;;-141.84;63.54;20141.06;5031400;28;20222;-59
2022/08/31 07:09:31;;;;;;;4.75;3.00;;;17.00;99.90;;;-141.84;63.00;20187.81;5031949;28;20240;-59
2022/08/31 07:11:59;;;;;;;3.13;2.72;;;17.00;99.90;;;-141.84;63.19;20171.56;5032110;28;20202;-59
2022/08/31 07:14:27;;;;;;;3.28;3.00;;;17.00;99.90;;;-141.84;63.25;20187.81;5031668;28;20233;-59
2022/08/31 07:17:01;;;;;;;3.30;3.05;;;16.90;99.90;;;-141.84;63.42;20155.28;5031492;28;20233;-59
2022/08/31 07:19:31;;;;;;;4.53;2.95;;;16.90;99.90;;;-141.84;64.06;20157.31;5031741;28;20230;-60
2022/08/31 07:22:01;;;;;;;4.22;2.88;;;16.90;99.90;;;-141.84;63.22;20169.53;5030920;28;20287;-60
2022/08/31 07:24:33;;;;;;;3.50;3.20;;;17.00;99.90;;;-141.84;63.54;20179.69;5032272;28;20187;-60
2022/08/31 07:27:08;;;;;;;4.97;2.95;;;17.10;99.90;;;-141.84;63.40;20195.94;5031722;28;20210;-59
2022/08/31 07:29:40;;;;;;;5.00;2.85;;;17.30;99.90;;;-141.84;61.60;20334.16;5031808;28;20186;-59
2022/08/31 07:32:11;;;;;;;4.30;3.30;;;17.40;99.90;;;-141.84;61.62;20309.75;5032010;28;20186;-59
2022/08/31 07:34:40;;;;;;;3.15;2.53;;;17.40;99.90;;;-141.84;61.21;20370.75;5031891;28;20605;-59
2022/08/31 07:42:45;;;;;;;2.60;2.20;;;17.90;99.90;;;-141.84;60.58;20476.44;5031988;28;20202;-59
2022/08/31 07:45:20;;;;;;;3.20;2.85;;;18.00;99.90;;;-141.84;59.29;20527.25;5051636;28;20216;-58
2022/08/31 07:47:54;;;;;;;3.30;2.70;;;18.10;99.90;;;-141.84;59.00;20622.81;5051709;28;20216;-59
2022/08/31 07:50:25;;;;;;;5.38;2.70;;;18.40;99.90;;;-141.84;58.15;20659.38;5051530;28;20241;-59
2022/08/31 07:52:57;;;;;;;3.47;2.60;;;18.60;99.90;;;-141.84;56.52;20754.94;5051605;28;20186;-60
2022/08/31 07:55:28;;;;;;;4.43;2.90;;;18.70;99.90;;;-141.84;56.61;20775.25;5051338;28;20671;-60
2022/08/31 07:57:56;;;;;;;4.00;2.80;;;18.80;99.90;;;-141.84;56.16;20801.69;5051253;28;20201;-59
2022/08/31 08:00:31;;;;;;;4.47;2.75;;;19.00;99.90;;;-141.84;56.25;20820.00;5051127;28;20674;-59
2022/08/31 08:03:06;;;;;;;3.92;2.53;;;19.00;99.90;;;-141.84;56.35;20832.19;5051176;28;20250;-59
2022/08/31 08:05:44;;;;;;;4.03;2.80;;;19.10;99.90;;;-141.84;56.79;20801.69;5051262;28;20193;-60
2022/08/31 08:08:12;;;;;;;3.45;2.85;;;19.00;99.90;;;-141.84;57.95;20730.53;5051590;28;20197;-61
2022/08/31 08:10:47;;;;;;;3.28;2.85;;;18.70;99.90;;;-141.84;58.02;20708.19;5051470;28;20193;-60
2022/08/31 08:13:21;;;;;;;4.47;2.90;;;18.60;99.90;;;-141.84;57.70;20720.38;5051199;28;20279;-59
2022/08/31 08:15:50;;;;;;;2.92;2.60;;;18.60;99.90;;;-141.84;57.71;20761.03;5051331;28;20235;-60
2022/08/31 08:18:21;;;;;;;3.30;2.60;;;18.70;99.90;;;-141.84;56.85;20809.81;5051991;28;20232;-60
2022/08/31 08:20:51;;;;;;;2.88;2.50;;;18.90;99.90;;;-141.84;56.49;20852.50;5055456;28;20186;-59
2022/08/31 08:23:19;;;;;;;2.60;2.40;;;19.20;99.90;;;-141.84;56.60;20893.16;5055010;28;20221;-61
2022/08/31 08:25:56;;;;;;;3.03;2.72;;;19.30;99.90;;;-141.84;55.72;20895.19;5055122;28;20185;-59
2022/08/31 08:28:27;;;;;;;4.18;2.78;;;19.40;99.90;;;-141.84;56.01;20907.41;5054845;28;20661;-60
2022/08/31 08:31:12;;;;;;;2.63;2.40;;;19.50;99.90;;;-141.84;56.18;20917.56;5055149;28;20192;-58
2022/08/31 08:33:43;;;;;;;3.50;2.80;;;19.50;99.90;;;-141.84;55.79;20876.91;5055250;28;20196;-59
2022/08/31 08:36:17;;;;;;;5.55;2.78;;;19.50;99.90;;;-141.84;56.11;20903.34;5055376;28;20220;-60
2022/08/31 08:38:49;;;;;;;3.03;2.67;;;19.40;99.90;;;-141.84;55.78;20876.91;5054866;28;20672;-60
2022/08/31 08:41:21;;;;;;;4.20;3.08;;;19.40;99.90;;;-141.84;55.97;20856.56;5054872;28;20182;-58
2022/08/31 08:43:53;;;;;;;4.90;3.30;;;19.40;99.90;;;-141.84;56.20;20838.28;5054649;28;20213;-59
2022/08/31 08:46:32;;;;;;;3.75;2.72;;;19.20;99.90;;;-141.84;57.05;20805.75;5055092;28;20189;-59
2022/08/31 08:49:18;;;;;;;2.78;2.50;;;19.10;99.90;;;-141.84;56.23;20876.91;5054947;28;20192;-62
2022/08/31 08:51:53;;;;;;;3.22;2.67;;;19.20;99.90;;;-141.84;56.25;20832.19;5055004;28;20552;-60
2022/08/31 08:54:30;;;;;;;4.50;2.75;;;19.20;99.90;;;-141.84;55.75;20891.13;5054901;28;20189;-60
2022/08/31 08:57:00;;;;;;;3.92;2.55;;;19.30;99.90;;;-141.84;54.15;20939.94;5054399;28;20195;-60
2022/08/31 08:59:29;;;;;;;3.85;2.70;;;19.40;99.90;;;-141.84;54.30;21007.00;5054704;28;20272;-60
2022/08/31 09:02:05;;;;;;;2.88;2.50;;;19.50;99.90;;;-141.84;54.66;20952.13;5054738;28;20201;-59
2022/08/31 09:05:33;;;;;;;6.00;2.80;;;19.50;99.90;;;-141.84;54.00;20988.72;5054689;28;20205;-60
2022/08/31 09:08:30;;;;;;;3.20;2.42;;;19.60;99.90;;;-141.84;53.13;21098.50;5054591;28;20231;-60
2022/08/31 09:11:16;;;;;;;3.20;2.25;;;19.80;99.90;;;-141.84;52.80;21118.84;5054372;28;20205;-59
2022/08/31 09:14:05;;;;;;;3.80;2.50;;;20.20;99.90;;;-141.84;51.50;21151.34;5053754;28;20727;-61
2022/08/31 09:16:43;;;;;;;2.20;2.00;;;20.40;99.90;;;-141.84;52.13;21179.81;5054481;28;20270;-59
2022/08/31 09:19:15;;;;;;;2.50;2.30;;;20.40;99.90;;;-141.84;50.96;21230.66;5054406;28;20484;-60
2022/08/31 09:21:53;;;;;;;2.65;2.15;;;20.60;99.90;;;-141.84;51.07;21230.66;5054487;28;20277;-59
2022/08/31 09:24:26;;;;;;;2.58;1.90;;;20.50;99.90;;;-141.84;51.21;21214.38;5053911;28;20315;-61
2022/08/31 09:27:16;;;;;;;2.58;2.13;;;20.60;99.90;;;-141.84;51.40;21198.13;5054027;28;20317;-59
2022/08/31 09:29:52;;;;;;;2.65;1.80;;;20.60;99.90;;;-141.84;50.64;21285.53;5053751;28;20185;-60
2022/08/31 09:32:25;;;;;;;3.88;2.20;;;20.70;99.90;;;-141.84;50.44;21322.13;5053986;28;20189;-60
2022/08/31 09:35:00;;;;;;;3.17;1.70;;;20.80;99.90;;;-141.84;50.00;21255.03;5053978;28;20232;-60
2022/08/31 09:37:44;;;;;;;2.53;1.67;;;20.90;99.90;;;-141.84;50.21;21253.00;5054338;28;20596;-59
2022/08/31 09:40:19;;;;;;;4.43;1.88;;;20.70;99.90;;;-141.84;50.02;21281.47;5054112;28;20307;-59
2022/08/31 09:43:05;;;;;;;2.88;1.90;;;20.80;99.90;;;-141.84;50.67;21206.25;5053893;28;20190;-59
2022/08/31 09:45:35;;;;;;;1.95;1.70;;;20.70;99.90;;;-141.84;50.90;21234.72;5053290;28;20269;-59
2022/08/31 09:48:09;;;;;;;2.63;1.95;;;20.70;99.90;;;-141.84;50.52;21273.34;5033915;28;20559;-59
2022/08/31 09:50:43;;;;;;;2.58;1.65;;;20.70;99.90;;;-141.84;50.50;21273.34;5033675;28;20305;-59
2022/08/31 09:56:14;;;;;;;1.67;1.45;;;20.70;99.90;;;-141.84;49.35;21293.69;5033530;28;20193;-60
2022/08/31 09:58:46;;;;;;;2.28;1.83;;;20.70;99.90;;;-141.84;49.72;21255.03;5033785;28;20185;-59
2022/08/31 10:01:21;;;;;;;3.88;1.95;;;20.70;99.90;;;-141.84;49.40;21297.75;5033797;28;20182;-60
2022/08/31 10:03:52;;;;;;;2.95;1.50;;;20.80;99.90;;;-141.84;48.89;21314.00;5033925;28;20206;-59
2022/08/31 10:06:46;;;;;;;2.13;1.48;;;20.80;99.90;;;-141.84;48.33;21334.34;5033837;28;20257;-59
2022/08/31 10:09:36;;;;;;;1.90;1.70;;;20.90;99.90;;;-141.84;48.62;21336.38;5033409;28;20723;-59
2022/08/31 10:12:11;;;;;;;2.17;1.63;;;21.00;99.90;;;-141.84;49.47;21283.50;5033663;28;20237;-60
2022/08/31 10:14:50;;;;;;;2.58;1.58;;;20.90;99.90;;;-141.84;48.75;21340.44;5050331;28;20223;-60
2022/08/31 10:17:28;;;;;;;2.00;1.63;;;21.00;99.90;;;-141.84;47.74;21370.94;5053406;28;20297;-60
2022/08/31 10:20:07;;;;;;;2.13;1.75;;;20.90;99.90;;;-141.84;48.92;21344.50;5053074;28;20185;-59
2022/08/31 10:22:41;;;;;;;2.33;1.58;;;20.90;99.90;;;-141.84;49.25;21340.44;5053664;28;20346;-61
2022/08/31 10:25:27;;;;;;;2.78;1.50;;;20.90;99.90;;;-141.84;48.88;21255.03;5053354;28;20575;-61
2022/08/31 10:28:07;;;;;;;1.60;1.50;;;20.70;99.90;;;-141.84;49.06;21391.28;5053056;28;20268;-58
2022/08/31 10:30:47;;;;;;;1.92;1.70;;;20.80;99.90;;;-141.84;49.24;21364.84;5052959;28;20310;-61
2022/08/31 10:33:21;;;;;;;2.05;1.60;;;20.90;99.90;;;-141.84;48.83;21403.47;5053003;28;20185;-60
2022/08/31 10:35:54;;;;;;;1.88;1.35;;;21.00;99.90;;;-141.84;48.52;21415.66;5052911;28;20407;-60